createdAt,value
2019-06-10T00:00:26.777Z,11.45
2019-06-10T00:03:02.865Z,12.28
2019-06-10T00:05:36.018Z,10.25
2019-06-10T00:08:12.032Z,10.43
2019-06-10T00:10:45.129Z,10.25
2019-06-10T00:13:20.940Z,11.25
2019-06-10T00:15:56.662Z,11.33
2019-06-10T00:18:41.499Z,11.10
2019-06-10T00:21:07.061Z,11.28
2019-06-10T00:23:42.076Z,11.63
2019-06-10T00:26:15.879Z,10.35
2019-06-10T00:28:51.321Z,10.98
2019-06-10T00:31:25.270Z,11.45
2019-06-10T00:34:01.322Z,10.70
2019-06-10T00:36:34.627Z,11.12
2019-06-10T00:39:13.113Z,10.95
2019-06-10T00:41:44.773Z,11.48
2019-06-10T00:44:20.527Z,11.03
2019-06-10T00:46:54.170Z,10.93
2019-06-10T00:49:27.979Z,11.90
2019-06-10T00:52:04.189Z,11.68
2019-06-10T00:54:37.755Z,11.08
2019-06-10T00:57:12.381Z,10.55
2019-06-10T00:59:47.197Z,11.03
2019-06-10T01:02:21.464Z,10.78
2019-06-10T01:04:55.291Z,10.95
2019-06-10T01:07:31.138Z,10.85
2019-06-10T01:10:05.094Z,11.28
2019-06-10T01:12:40.694Z,10.75
2019-06-10T01:15:15.290Z,11.10
2019-06-10T01:17:51.128Z,11.12
2019-06-10T01:20:24.748Z,11.03
2019-06-10T01:22:58.441Z,11.00
2019-06-10T01:25:32.185Z,11.00
2019-06-10T01:28:05.955Z,11.25
2019-06-10T01:30:41.280Z,11.70
2019-06-10T01:33:16.418Z,10.85
2019-06-10T01:35:51.465Z,10.82
2019-06-10T01:38:25.407Z,10.60
2019-06-10T01:41:01.330Z,10.40
2019-06-10T01:43:34.847Z,10.93
2019-06-10T01:46:11.323Z,11.57
2019-06-10T01:48:48.144Z,11.12
2019-06-10T01:51:21.302Z,10.82
2019-06-10T01:53:55.603Z,11.03
2019-06-10T01:56:31.341Z,10.45
2019-06-10T01:59:04.823Z,11.33
2019-06-10T02:01:57.393Z,11.38
2019-06-10T02:04:32.081Z,10.20
2019-06-10T02:07:06.182Z,10.50
2019-06-10T02:09:41.090Z,10.40
2019-06-10T02:12:17.554Z,11.10
2019-06-10T02:14:50.959Z,11.05
2019-06-10T02:17:24.671Z,10.68
2019-06-10T02:20:00.982Z,11.03
2019-06-10T02:22:33.997Z,10.58
2019-06-10T02:25:07.871Z,11.10
2019-06-10T02:27:41.672Z,11.15
2019-06-10T02:30:29.777Z,10.80
2019-06-10T02:32:52.380Z,10.63
2019-06-10T02:35:38.734Z,10.70
2019-06-10T02:38:03.517Z,10.00
2019-06-10T02:40:37.545Z,10.93
2019-06-10T02:43:17.462Z,11.22
2019-06-10T02:45:48.806Z,11.40
2019-06-10T02:48:30.141Z,10.72
2019-06-10T02:51:07.638Z,10.63
2019-06-10T02:53:43.372Z,10.88
2019-06-10T02:56:17.757Z,10.68
2019-06-10T02:58:53.527Z,10.60
2019-06-10T03:01:32.560Z,11.28
2019-06-10T03:04:04.500Z,11.28
2019-06-10T03:06:40.254Z,10.68
2019-06-10T03:09:14.377Z,10.85
2019-06-10T03:11:48.586Z,10.60
2019-06-10T03:14:25.278Z,10.70
2019-06-10T03:17:03.163Z,10.90
2019-06-10T03:19:46.881Z,10.82
2019-06-10T03:22:13.117Z,10.82
2019-06-10T03:24:47.058Z,10.75
2019-06-10T03:27:23.151Z,10.58
2019-06-10T03:29:56.359Z,10.35
2019-06-10T03:32:36.562Z,10.60
2019-06-10T03:35:06.168Z,10.48
2019-06-10T03:37:42.223Z,10.30
2019-06-10T03:40:16.487Z,11.25
2019-06-10T03:42:52.017Z,10.25
2019-06-10T03:45:27.200Z,10.90
2019-06-10T03:48:03.757Z,10.78
2019-06-10T03:50:37.385Z,10.70
2019-06-10T03:53:12.851Z,10.50
2019-06-10T03:55:46.953Z,10.72
2019-06-10T03:58:22.063Z,10.90
2019-06-10T04:00:56.391Z,10.40
2019-06-10T04:03:30.027Z,11.20
2019-06-10T04:06:04.099Z,10.88
2019-06-10T04:08:37.943Z,10.15
2019-06-10T04:11:12.251Z,11.05
2019-06-10T04:13:46.352Z,11.15
2019-06-10T04:16:22.261Z,11.22
2019-06-10T04:18:55.818Z,10.13
2019-06-10T04:21:29.644Z,10.78
2019-06-10T04:24:03.421Z,10.72
2019-06-10T04:26:38.179Z,11.12
2019-06-10T04:29:12.930Z,10.60
2019-06-10T04:31:46.885Z,11.30
2019-06-10T04:34:23.762Z,10.53
2019-06-10T04:36:55.980Z,10.70
2019-06-10T04:39:29.831Z,11.38
2019-06-10T04:42:03.570Z,10.75
2019-06-10T04:44:37.381Z,11.35
2019-06-10T04:47:12.083Z,11.12
2019-06-10T04:49:45.869Z,11.10
2019-06-10T04:52:21.237Z,10.95
2019-06-10T04:54:55.259Z,11.00
2019-06-10T04:57:29.648Z,11.43
2019-06-10T05:00:11.011Z,10.75
2019-06-10T05:02:38.971Z,11.33
2019-06-10T05:05:13.207Z,10.82
2019-06-10T05:07:47.418Z,10.45
2019-06-10T05:10:23.697Z,11.28
2019-06-10T05:12:56.849Z,11.22
2019-06-10T05:15:34.151Z,11.22
2019-06-10T05:18:06.734Z,11.48
2019-06-10T05:20:52.004Z,11.18
2019-06-10T05:23:16.085Z,11.40
2019-06-10T05:25:52.274Z,10.75
2019-06-10T05:28:25.993Z,12.03
2019-06-10T05:31:02.807Z,10.72
2019-06-10T05:33:36.251Z,10.70
2019-06-10T05:36:09.914Z,10.78
2019-06-10T05:38:43.797Z,11.22
2019-06-10T05:41:17.737Z,10.18
2019-06-10T05:43:52.444Z,11.50
2019-06-10T05:46:27.312Z,11.05
2019-06-10T05:49:03.103Z,10.68
2019-06-10T05:51:37.121Z,10.38
2019-06-10T05:54:12.786Z,10.98
2019-06-10T05:56:46.703Z,10.60
2019-06-10T05:59:22.611Z,10.80
2019-06-10T06:01:56.131Z,11.20
2019-06-10T06:04:32.584Z,11.25
2019-06-10T06:07:05.636Z,11.35
2019-06-10T06:09:39.527Z,10.60
2019-06-10T06:12:14.284Z,11.55
2019-06-10T06:14:48.249Z,11.43
2019-06-10T06:17:23.603Z,10.45
2019-06-10T06:19:57.755Z,11.15
2019-06-10T06:22:34.317Z,11.45
2019-06-10T06:25:07.810Z,11.45
2019-06-10T06:27:42.365Z,11.28
2019-06-10T06:30:18.938Z,11.22
2019-06-10T06:32:53.338Z,11.08
2019-06-10T06:35:28.457Z,11.35
2019-06-10T06:38:02.688Z,10.85
2019-06-10T06:40:37.590Z,11.95
2019-06-10T06:43:12.571Z,11.22
2019-06-10T06:45:46.384Z,11.65
2019-06-10T06:48:22.603Z,11.43
2019-06-10T06:51:03.988Z,11.60
2019-06-10T06:53:39.556Z,10.95
2019-06-10T06:56:07.134Z,11.05
2019-06-10T06:58:43.236Z,11.12
2019-06-10T07:01:17.261Z,11.12
2019-06-10T07:03:53.585Z,11.60
2019-06-10T07:06:27.776Z,10.80
2019-06-10T07:09:07.744Z,11.10
2019-06-10T07:11:39.859Z,11.35
2019-06-10T07:14:14.967Z,10.68
2019-06-10T07:16:48.942Z,11.85
2019-06-10T07:19:22.791Z,11.75
2019-06-10T07:22:08.742Z,10.93
2019-06-10T07:24:36.009Z,11.63
2019-06-10T07:27:08.575Z,10.70
2019-06-10T07:29:46.929Z,11.05
2019-06-10T07:32:18.468Z,10.63
2019-06-10T07:34:52.827Z,10.98
2019-06-10T07:37:26.829Z,11.03
2019-06-10T07:40:02.908Z,10.98
2019-06-10T07:42:37.462Z,11.05
2019-06-10T07:45:13.193Z,11.48
2019-06-10T07:47:47.223Z,10.93
2019-06-10T07:50:22.681Z,11.00
2019-06-10T07:52:58.670Z,11.53
2019-06-10T07:55:33.337Z,11.65
2019-06-10T07:58:08.597Z,11.30
2019-06-10T08:00:46.479Z,11.78
2019-06-10T08:03:19.294Z,12.25
2019-06-10T08:05:54.975Z,11.80
2019-06-10T08:08:29.069Z,10.78
2019-06-10T08:11:03.655Z,12.18
2019-06-10T08:13:37.678Z,11.12
2019-06-10T08:16:13.066Z,12.10
2019-06-10T08:19:16.138Z,11.75
2019-06-10T08:21:23.781Z,11.75
2019-06-10T08:23:57.815Z,12.18
2019-06-10T08:26:32.423Z,12.60
2019-06-10T08:29:06.701Z,12.28
2019-06-10T08:31:43.661Z,11.83
2019-06-10T08:34:16.754Z,12.43
2019-06-10T08:36:54.189Z,12.55
2019-06-10T08:39:26.868Z,11.80
2019-06-10T08:42:03.146Z,10.93
2019-06-10T08:44:36.833Z,11.70
2019-06-10T08:47:12.426Z,11.12
2019-06-10T08:49:49.029Z,11.28
2019-06-10T08:52:23.732Z,11.30
2019-06-10T08:54:57.971Z,12.00
2019-06-10T08:57:33.499Z,11.97
2019-06-10T09:00:12.558Z,10.48
2019-06-10T09:02:48.360Z,11.53
2019-06-10T09:05:23.255Z,11.12
2019-06-10T09:07:57.093Z,11.22
2019-06-10T09:10:33.777Z,10.85
2019-06-10T09:13:07.403Z,10.78
2019-06-10T09:15:43.767Z,10.40
2019-06-10T09:18:20.074Z,11.57
2019-06-10T09:20:55.989Z,11.55
2019-06-10T09:23:29.373Z,11.63
2019-06-10T09:26:05.080Z,13.15
2019-06-10T09:28:45.034Z,11.38
2019-06-10T09:31:15.992Z,10.93
2019-06-10T09:33:53.390Z,11.63
2019-06-10T09:36:25.446Z,10.43
2019-06-10T09:38:59.118Z,10.53
2019-06-10T09:41:40.068Z,10.82
2019-06-10T09:44:08.532Z,10.23
2019-06-10T09:46:45.879Z,9.95
2019-06-10T09:49:19.052Z,10.53
2019-06-10T09:51:57.364Z,10.78
2019-06-10T09:54:29.874Z,10.93
2019-06-10T09:57:03.955Z,11.08
2019-06-10T09:59:37.747Z,10.65
2019-06-10T10:02:12.568Z,11.03
2019-06-10T10:04:50.521Z,10.72
2019-06-10T10:07:22.636Z,10.48
2019-06-10T10:09:57.483Z,10.75
2019-06-10T10:12:33.156Z,10.13
2019-06-10T10:15:23.296Z,9.90
2019-06-10T10:17:50.763Z,10.20
2019-06-10T10:20:24.037Z,10.63
2019-06-10T10:22:57.767Z,10.20
2019-06-10T10:25:32.820Z,10.32
2019-06-10T10:28:09.487Z,9.95
2019-06-10T10:30:46.029Z,10.23
2019-06-10T10:33:19.095Z,10.32
2019-06-10T10:35:52.803Z,10.10
2019-06-10T10:38:26.633Z,9.98
2019-06-10T10:41:04.202Z,10.15
2019-06-10T10:43:37.840Z,10.40
2019-06-10T10:46:13.975Z,9.90
2019-06-10T10:48:47.132Z,9.70
2019-06-10T10:51:23.059Z,9.48
2019-06-10T10:54:19.013Z,8.93
2019-06-10T10:56:33.974Z,10.15
2019-06-10T10:59:07.414Z,9.83
2019-06-10T11:01:43.745Z,9.58
2019-06-10T11:04:16.996Z,9.78
2019-06-10T11:06:54.401Z,10.05
2019-06-10T11:09:26.938Z,9.60
2019-06-10T11:12:03.376Z,10.08
2019-06-10T11:14:36.215Z,9.20
2019-06-10T11:17:09.975Z,9.35
2019-06-10T11:19:43.735Z,9.28
2019-06-10T11:22:17.389Z,9.13
2019-06-10T11:24:53.581Z,8.63
2019-06-10T11:27:26.602Z,8.65
2019-06-10T11:30:02.432Z,8.30
2019-06-10T11:32:36.311Z,7.92
2019-06-10T11:35:12.187Z,7.97
2019-06-10T11:37:46.749Z,8.48
2019-06-10T11:40:22.415Z,8.63
2019-06-10T11:42:59.481Z,8.45
2019-06-10T11:45:32.849Z,9.10
2019-06-10T11:48:07.012Z,9.08
2019-06-10T11:50:42.833Z,9.13
2019-06-10T11:53:17.673Z,8.80
2019-06-10T11:55:51.785Z,8.90
2019-06-10T11:58:25.719Z,9.30
2019-06-10T12:01:03.064Z,9.25
2019-06-10T12:03:35.779Z,9.65
2019-06-10T12:06:09.617Z,10.03
2019-06-10T12:08:43.907Z,9.40
2019-06-10T12:11:17.835Z,9.83
2019-06-10T12:13:53.229Z,9.20
2019-06-10T12:19:03.704Z,10.00
2019-06-10T12:21:37.502Z,9.58
2019-06-10T12:24:22.883Z,9.65
2019-06-10T12:26:58.378Z,8.83
2019-06-10T12:29:31.314Z,9.73
2019-06-10T12:32:07.389Z,9.38
2019-06-10T12:34:40.721Z,9.53
2019-06-10T12:37:15.909Z,9.40
2019-06-10T12:39:49.895Z,9.58
2019-06-10T12:42:23.934Z,9.50
2019-06-10T12:44:58.910Z,9.08
2019-06-10T12:47:33.424Z,9.95
2019-06-10T12:50:07.820Z,9.83
2019-06-10T12:52:41.641Z,9.85
2019-06-10T12:55:16.323Z,10.20
2019-06-10T12:57:52.163Z,10.95
2019-06-10T13:00:26.517Z,10.75
2019-06-10T13:03:03.733Z,10.60
2019-06-10T13:05:35.937Z,10.63
2019-06-10T13:08:09.731Z,9.95
2019-06-10T13:10:43.675Z,10.55
2019-06-10T13:13:17.727Z,10.68
2019-06-10T13:15:53.153Z,10.70
2019-06-10T13:18:26.907Z,10.38
2019-06-10T13:21:07.290Z,11.53
2019-06-10T13:23:36.376Z,9.90
2019-06-10T13:26:15.076Z,10.48
2019-06-10T13:28:45.480Z,10.98
2019-06-10T13:31:19.313Z,10.10
2019-06-10T13:33:53.107Z,10.68
2019-06-10T13:36:26.971Z,10.72
2019-06-10T13:39:03.974Z,9.83
2019-06-10T13:41:36.248Z,11.22
2019-06-10T13:44:15.203Z,10.55
2019-06-10T13:46:46.638Z,11.12
2019-06-10T13:49:25.181Z,11.05
2019-06-10T13:51:56.005Z,10.48
2019-06-10T13:54:30.856Z,10.85
2019-06-10T13:57:06.595Z,10.80
2019-06-10T13:59:42.954Z,10.35
2019-06-10T14:02:15.598Z,10.38
2019-06-10T14:04:49.420Z,10.63
2019-06-10T14:07:23.457Z,10.80
2019-06-10T14:09:58.353Z,10.70
2019-06-10T14:12:32.450Z,10.98
2019-06-10T14:15:09.356Z,11.57
2019-06-10T14:17:42.470Z,11.33
2019-06-10T14:20:17.699Z,11.65
2019-06-10T14:22:52.998Z,11.15
2019-06-10T14:25:26.825Z,11.80
2019-06-10T14:28:03.208Z,11.90
2019-06-10T14:30:36.230Z,11.53
2019-06-10T14:33:16.660Z,11.43
2019-06-10T14:35:49.992Z,11.55
2019-06-10T14:38:23.905Z,12.10
2019-06-10T14:40:57.660Z,12.47
2019-06-10T14:43:33.159Z,11.03
2019-06-10T14:46:07.414Z,11.63
2019-06-10T14:48:42.666Z,11.12
2019-06-10T14:51:17.261Z,11.08
2019-06-10T14:53:51.172Z,12.15
2019-06-10T14:56:24.862Z,12.50
2019-06-10T14:58:58.675Z,11.68
2019-06-10T15:01:32.883Z,12.23
2019-06-10T15:04:07.863Z,11.63
2019-06-10T15:06:43.216Z,12.00
2019-06-10T15:09:19.833Z,11.65
2019-06-10T15:11:55.369Z,10.72
2019-06-10T15:14:29.187Z,11.33
2019-06-10T15:17:03.038Z,11.60
2019-06-10T15:19:36.663Z,11.53
2019-06-10T15:22:12.632Z,11.40
2019-06-10T15:24:46.130Z,11.40
2019-06-10T15:27:27.551Z,11.18
2019-06-10T15:29:55.419Z,11.05
2019-06-10T15:32:34.669Z,12.10
2019-06-10T15:35:04.974Z,11.93
2019-06-10T15:37:38.646Z,11.90
2019-06-10T15:40:14.028Z,11.10
2019-06-10T15:42:47.932Z,11.38
2019-06-10T15:45:23.120Z,11.38
2019-06-10T15:47:56.962Z,11.70
2019-06-10T15:50:32.366Z,11.10
2019-06-10T15:53:06.293Z,10.95
2019-06-10T15:56:09.230Z,10.80
2019-06-10T15:58:17.377Z,10.65
2019-06-10T16:00:54.336Z,10.68
2019-06-10T16:03:28.119Z,11.18
2019-06-10T16:06:03.203Z,11.30
2019-06-10T16:08:38.307Z,10.95
2019-06-10T16:11:15.406Z,11.85
2019-06-10T16:13:47.688Z,11.12
2019-06-10T16:16:21.445Z,10.85
2019-06-10T16:18:55.419Z,11.00
2019-06-10T16:21:30.156Z,11.08
2019-06-10T16:24:03.816Z,11.00
2019-06-10T16:26:37.554Z,11.73
2019-06-10T16:29:12.282Z,11.03
2019-06-10T16:31:46.097Z,11.10
2019-06-10T16:34:21.239Z,11.70
2019-06-10T16:36:55.334Z,11.33
2019-06-10T16:39:28.961Z,11.43
2019-06-10T16:42:03.175Z,11.83
2019-06-10T16:44:38.414Z,12.23
2019-06-10T16:47:12.580Z,11.70
2019-06-10T16:49:47.608Z,11.75
2019-06-10T16:52:25.657Z,11.25
2019-06-10T16:54:59.278Z,12.35
2019-06-10T16:57:35.205Z,12.33
2019-06-10T17:00:11.995Z,11.65
2019-06-10T17:02:44.886Z,11.10
2019-06-10T17:05:18.575Z,11.93
2019-06-10T17:07:52.741Z,11.55
2019-06-10T17:10:28.238Z,11.85
2019-06-10T17:13:04.584Z,11.93
2019-06-10T17:15:38.264Z,11.80
2019-06-10T17:18:13.110Z,11.63
2019-06-10T17:20:47.409Z,11.90
2019-06-10T17:23:28.057Z,11.73
2019-06-10T17:26:01.946Z,11.78
2019-06-10T17:28:37.044Z,10.88
2019-06-10T17:31:11.057Z,11.70
2019-06-10T17:33:44.834Z,11.20
2019-06-10T17:36:18.618Z,11.70
2019-06-10T17:38:52.893Z,11.28
2019-06-10T17:41:29.327Z,11.73
2019-06-10T17:44:02.734Z,11.55
2019-06-10T17:46:36.454Z,12.30
2019-06-10T17:49:13.088Z,19.25
2019-06-10T17:51:46.727Z,15.00
2019-06-10T17:54:22.508Z,14.07
2019-06-10T17:56:55.995Z,12.90
2019-06-10T17:59:30.893Z,12.25
2019-06-10T18:02:05.319Z,11.90
2019-06-10T18:04:38.996Z,12.20
2019-06-10T18:07:13.189Z,11.80
2019-06-10T18:09:47.015Z,12.20
2019-06-10T18:12:22.404Z,11.55
2019-06-10T18:14:57.571Z,12.18
2019-06-10T18:17:34.796Z,13.00
2019-06-10T18:20:08.223Z,12.15
2019-06-10T18:22:41.985Z,11.80
2019-06-10T18:25:15.741Z,12.90
2019-06-10T18:27:49.636Z,12.13
2019-06-10T18:30:23.557Z,12.35
2019-06-10T18:32:57.199Z,12.47
2019-06-10T18:35:34.135Z,13.00
2019-06-10T18:38:06.605Z,12.70
2019-06-10T18:40:42.848Z,12.73
2019-06-10T18:43:18.260Z,12.35
2019-06-10T18:45:53.233Z,12.82
2019-06-10T18:48:29.040Z,12.35
2019-06-10T18:51:03.169Z,12.45
2019-06-10T18:53:37.090Z,12.28
2019-06-10T18:56:13.006Z,12.60
2019-06-10T18:58:46.991Z,13.58
2019-06-10T19:01:22.663Z,12.55
2019-06-10T19:03:56.348Z,13.08
2019-06-10T19:06:31.294Z,12.60
2019-06-10T19:09:07.154Z,13.20
2019-06-10T19:11:43.107Z,12.95
2019-06-10T19:14:16.473Z,13.03
2019-06-10T19:16:52.284Z,12.43
2019-06-10T19:19:25.747Z,13.62
2019-06-10T19:22:06.206Z,13.05
2019-06-10T19:24:36.725Z,13.70
2019-06-10T19:27:10.530Z,13.43
2019-06-10T19:29:50.746Z,13.90
2019-06-10T19:32:19.896Z,13.85
2019-06-10T19:34:53.910Z,13.65
2019-06-10T19:37:27.702Z,14.13
2019-06-10T19:40:01.460Z,13.70
2019-06-10T19:42:35.985Z,13.53
2019-06-10T19:45:12.521Z,13.93
2019-06-10T19:47:46.844Z,14.00
2019-06-10T19:50:21.045Z,13.62
2019-06-10T19:52:54.930Z,13.38
2019-06-10T19:55:28.566Z,13.22
2019-06-10T19:58:03.665Z,13.40
2019-06-10T20:00:37.816Z,13.48
2019-06-10T20:03:12.034Z,14.30
2019-06-10T20:05:47.140Z,14.03
2019-06-10T20:08:22.673Z,13.25
2019-06-10T20:10:56.714Z,13.20
2019-06-10T20:13:32.430Z,13.43
2019-06-10T20:16:06.089Z,13.50
2019-06-10T20:18:40.508Z,14.20
2019-06-10T20:21:15.656Z,14.50
2019-06-10T20:23:49.324Z,13.60
2019-06-10T20:26:23.196Z,13.78
2019-06-10T20:28:56.848Z,14.20
2019-06-10T20:31:32.529Z,14.23
2019-06-10T20:34:06.111Z,14.90
2019-06-10T20:36:42.444Z,14.33
2019-06-10T20:39:15.650Z,14.07
2019-06-10T20:41:52.379Z,14.10
2019-06-10T20:44:24.917Z,14.43
2019-06-10T20:46:58.680Z,15.00
2019-06-10T20:49:34.270Z,14.15
2019-06-10T20:52:12.353Z,14.35
2019-06-10T20:54:46.432Z,14.90
2019-06-10T20:57:19.266Z,15.20
2019-06-10T20:59:53.138Z,15.30
2019-06-10T21:02:26.981Z,15.20
2019-06-10T21:05:02.773Z,15.15
2019-06-10T21:07:36.239Z,14.90
2019-06-10T21:10:10.192Z,14.30
2019-06-10T21:12:44.908Z,14.60
2019-06-10T21:15:19.595Z,14.25
2019-06-10T21:17:53.438Z,15.10
2019-06-10T21:20:27.310Z,14.33
2019-06-10T21:23:03.034Z,14.73
2019-06-10T21:25:36.528Z,14.47
2019-06-10T21:28:12.978Z,14.55
2019-06-10T21:30:53.383Z,14.75
2019-06-10T21:33:23.510Z,14.70
2019-06-10T21:35:59.164Z,15.08
2019-06-10T21:38:32.962Z,13.83
2019-06-10T21:41:06.780Z,14.55
2019-06-10T21:43:42.514Z,15.90
2019-06-10T21:46:15.958Z,15.08
2019-06-10T21:48:50.569Z,14.73
2019-06-10T21:51:24.363Z,15.85
2019-06-10T21:53:58.457Z,16.30
2019-06-10T21:56:32.946Z,16.37
2019-06-10T21:59:06.868Z,16.55
2019-06-10T22:01:42.959Z,17.45
2019-06-10T22:04:16.278Z,16.80
2019-06-10T22:06:52.907Z,17.65
2019-06-10T22:09:25.934Z,18.10
2019-06-10T22:11:59.699Z,17.85
2019-06-10T22:14:33.422Z,17.42
2019-06-10T22:17:07.415Z,17.12
2019-06-10T22:19:42.732Z,18.23
2019-06-10T22:22:16.653Z,16.75
2019-06-10T22:24:51.296Z,19.55
2019-06-10T22:27:26.048Z,17.80
2019-06-10T22:30:02.688Z,17.55
2019-06-10T22:32:35.514Z,18.07
2019-06-10T22:35:09.375Z,18.17
2019-06-10T22:37:43.424Z,18.02
2019-06-10T22:40:17.152Z,19.00
2019-06-10T22:42:53.684Z,18.57
2019-06-10T22:45:26.480Z,20.12
2019-06-10T22:48:02.775Z,18.25
2019-06-10T22:50:35.905Z,20.40
2019-06-10T22:53:12.096Z,19.57
2019-06-10T22:55:45.166Z,19.98
2019-06-10T22:58:18.919Z,20.20
2019-06-10T23:00:56.232Z,19.92
2019-06-10T23:03:29.141Z,20.95
2019-06-10T23:06:04.773Z,20.23
2019-06-10T23:08:38.543Z,19.75
2019-06-10T23:11:12.995Z,18.95
2019-06-10T23:13:47.172Z,18.67
2019-06-10T23:16:22.244Z,18.37
2019-06-10T23:18:57.168Z,18.92
2019-06-10T23:21:31.581Z,20.20
2019-06-10T23:24:05.363Z,18.92
2019-06-10T23:26:39.176Z,18.90
2019-06-10T23:29:13.092Z,18.45
2019-06-10T23:31:53.997Z,17.98
2019-06-10T23:34:23.220Z,19.60
2019-06-10T23:36:58.758Z,18.98
2019-06-10T23:39:33.591Z,20.17
2019-06-10T23:42:07.586Z,20.10
2019-06-10T23:44:41.376Z,19.25
2019-06-10T23:47:15.231Z,18.85
2019-06-10T23:49:49.176Z,20.43
2019-06-10T23:52:22.924Z,20.17
2019-06-10T23:54:57.900Z,21.07
2019-06-10T23:57:32.937Z,22.02
